Star Markella — V7KL3 — position and weather

sailwx.info

Track history (hours):
 
Tides and Currents Weather Stations Pressure Air Temp Water Temp Dewpoint Dewpoint Depression Visibility Wind Speed Wind Dir Waves Ship Positions

Star Markella

Last reported at 2015-May-10 11:13 UTC. Time now 2015-May-25 05:33 UTC.
Position S 34°47' W 057°31'.
Warning: this ship's position is 14 days out of date.

Length 229 m; draft 10 m.

Type: Cargo ship. MMSI: 538002640.

Date/timePositionNaut miles runAvg speedWind from/ knotsBaromVisibWave heightAir tempDewpointWater temp
2015-May-10 11:13S 34°47' W 057°31'711.0
2015-May-10 10:33S 34°45' W 057°39'8 7.8
2015-May-10 09:33S 34°44' W 057°48'1 0.5
2015-May-10 08:32S 34°44' W 057°48'0 0.0
2015-May-10 07:32S 34°44' W 057°48'0 0.0
2015-May-10 06:32S 34°44' W 057°48'0 0.0
2015-May-10 05:32S 34°44' W 057°48'0 0.0
2015-May-10 04:32S 34°44' W 057°48'0 0.1
2015-May-10 03:32S 34°44' W 057°48'0 0.1
2015-May-10 02:32S 34°44' W 057°48'0 0.1
2015-May-10 01:32S 34°44' W 057°48'0 0.0
2015-May-10 00:32S 34°44' W 057°48'0 0.0
2015-May-09 23:32S 34°44' W 057°48'0 0.0
2015-May-09 22:32S 34°44' W 057°48'0 0.2
2015-May-09 21:32S 34°44' W 057°48'0 0.1
2015-May-09 20:29S 34°44' W 057°48'0 0.0
2015-May-09 19:23S 34°44' W 057°48'0 0.0
2015-May-09 18:32S 34°44' W 057°48'0 0.1
2015-May-09 17:32S 34°44' W 057°48'4 4.0
2015-May-09 16:33S 34°42' W 057°52'1312.7
2015-May-09 15:33S 34°38' W 058°07'1010.4
2015-May-09 14:33S 34°33' W 058°18'10 9.6
2015-May-09 13:33S 34°26' W 058°25'10 8.8
2015-May-09 12:26S 34°18' W 058°32'19 7.9
2015-May-09 10:05S 34°11' W 058°53'35 6.1
2015-May-09 04:15S 33°44' W 059°21'811.2
2015-May-09 03:33S 33°40' W 059°28'9 8.7
2015-May-09 02:33S 33°38' W 059°39'  
Track history (hours):
 
Tides and Currents Weather Stations Pressure Air Temp Water Temp Dewpoint Dewpoint Depression Visibility Wind Speed Wind Dir Waves Ship Positions

Star Markella

Last reported at 2015-May-10 11:13 UTC. Time now 2015-May-25 05:33 UTC.
Position S 34°47' W 057°31'.
Warning: this ship's position is 14 days out of date.

Length 229 m; draft 10 m.

Type: Cargo ship. MMSI: 538002640.

Date/timePositionNaut miles runAvg speedWind from/ knotsBaromVisibWave heightAir tempDewpointWater temp
2015-May-10 11:13S 34°47' W 057°31'711.0
2015-May-10 10:33S 34°45' W 057°39'8 7.8
2015-May-10 09:33S 34°44' W 057°48'1 0.5
2015-May-10 08:32S 34°44' W 057°48'0 0.0
2015-May-10 07:32S 34°44' W 057°48'0 0.0
2015-May-10 06:32S 34°44' W 057°48'0 0.0
2015-May-10 05:32S 34°44' W 057°48'0 0.0
2015-May-10 04:32S 34°44' W 057°48'0 0.1
2015-May-10 03:32S 34°44' W 057°48'0 0.1
2015-May-10 02:32S 34°44' W 057°48'0 0.1
2015-May-10 01:32S 34°44' W 057°48'0 0.0
2015-May-10 00:32S 34°44' W 057°48'0 0.0
2015-May-09 23:32S 34°44' W 057°48'0 0.0
2015-May-09 22:32S 34°44' W 057°48'0 0.2
2015-May-09 21:32S 34°44' W 057°48'0 0.1
2015-May-09 20:29S 34°44' W 057°48'0 0.0
2015-May-09 19:23S 34°44' W 057°48'0 0.0
2015-May-09 18:32S 34°44' W 057°48'0 0.1
2015-May-09 17:32S 34°44' W 057°48'4 4.0
2015-May-09 16:33S 34°42' W 057°52'1312.7
2015-May-09 15:33S 34°38' W 058°07'1010.4
2015-May-09 14:33S 34°33' W 058°18'10 9.6
2015-May-09 13:33S 34°26' W 058°25'10 8.8
2015-May-09 12:26S 34°18' W 058°32'19 7.9
2015-May-09 10:05S 34°11' W 058°53'35 6.1
2015-May-09 04:15S 33°44' W 059°21'811.2
2015-May-09 03:33S 33°40' W 059°28'9 8.7
2015-May-09 02:33S 33°38' W 059°39'  

Dump ship's entire track history